Main page
METAR-TAF:

METAR-TAF

Airports :

Mykonos International Airport

Mykonos, Greece

latitude: 37-26-09N, longitude: 025-20-45E, elevation: 123 m

Current weather observation

The report was made 6 hours and 38 minutes ago, at 17:50 UTC
Wind 7 kt from the Southwest
Temperature 21°C
Humidity 64%
Pressure 1012 hPa
Visibility 10 km or more
no clouds below 1500 m and no cumulonimbus

METAR: LGMK 251750Z 22007KT CAVOK 21/14 Q1012

Time: 02:28 (00:28 UTC)

Forecast

The report was made 1 hour and 28 minutes ago, at 23:00 UTC
Forecast valid from 26 at 00 UTC to 26 at 09 UTC
Wind 12 kt from the North/Northwest
Visibility 10 km or more
Few clouds at a height of 1000 ft

TAF: LGMK 252300Z 2600/2609 34012KT 9999 FEW010

Weather observations and forecasts of more than 4000 airports (METAR and TAF reports).

The available stations are represented by yellow and red dots on the map.

Hover mouse over dot to see the name of the station.

Then click to see weather observations and forecasts.

To change the map : click on the green buttons with a black cross to zoom in, on the green button with a dash to zoom out, or on the green arrows for adjacent maps.


METAR-TAF: